TAF and METAR

Decoding for American and Canadian METARs and TAFs is not fully implemented.
No METAR available for Alert Airport

TAF for Alert Airport

TAF CYLT 281721Z 2818/2906 04008KT P6SM BKN004 OVC015 TEMPO 2818/2820 SCT004 OVC015 FM282000 04008KT P6SM SCT008 OVC015 TEMPO 2820/2823 BKN008 OVC015 FM282300 34008KT P6SM SCT006 OVC012 TEMPO 2823/2904 6SM -SN BR OVC006 FM290400 34010G20KT 5SM -SN BR BKN006 OVC012 RMK NXT FCST BY 290000Z
Report created 28. mai 19:21

between 28. mai 20:00 - 29. mai 08:00

wind 8 knots from NE (040°)